Overview Statistics Trail Chart Weather Telemetry Raw packets
 

This is the latest recevied weather packets stored in our database for station/object NK7E-2. If no packets are shown the sender has not sent any weather packets the latest 10 day(s).

<< 16 17 18 19 20 21 22 >>
Time Temp. Humidity Pressure Rain* Wind** Luminosity Snow
1788201617 23.89° C 70% 1030.8 hPa 0 mm - - -
1788201016 23.89° C 69% 1030.8 hPa 0 mm - - -
1788200426 24.44° C 67% 1030.9 hPa 0 mm - - -
1788199816 24.44° C 64% 1030.9 hPa 0 mm - - -
1788199216 25.56° C 63% 1030.5 hPa 0 mm - - -
1788198616 25.56° C 62% 1030.3 hPa 0 mm - - -
1788198016 26.11° C 62% 1030.3 hPa 0 mm - - -
1788197416 26.11° C 60% 1030.1 hPa 0 mm - - -
1788196816 26.11° C 58% 1030 hPa 0 mm - - -
1788196216 26.11° C 60% 1029.9 hPa 0 mm - - -
1788195616 26.11° C 60% 1030.2 hPa 0 mm - - -
1788195016 26.67° C 60% 1030 hPa 0 mm - - -
1788194416 25° C 64% 1029.6 hPa 0 mm - - -
1788193816 25° C 65% 1029.7 hPa 0 mm - - -
1788193216 24.44° C 67% 1029.6 hPa 0 mm - - -
1788192616 23.33° C 69% 1029.1 hPa 0 mm - - -
1788192016 22.78° C 71% 1029.1 hPa 0 mm - - -
1788191416 22.78° C 71% 1029.2 hPa 0 mm - - -
1788190816 22.78° C 71% 1029.2 hPa 0 mm - - -
1788190216 22.78° C 71% 1029.4 hPa 0 mm - - -
1788189616 22.78° C 69% 1029.2 hPa 0 mm - - -
1788189016 24.44° C 63% 1029.6 hPa 0 mm - - -
1788188416 25° C 56% 1029.2 hPa 0 mm - - -
1788187816 24.44° C 58% 1029.1 hPa 0 mm - - -
1788187216 23.89° C 63% 1029.2 hPa 0 mm - - -

* Rain latest hour (hover to see other rain measurements)
** Current wind speed in m/s (hover to see current wind gust speed)